PWSweather.com
Personal Weather Stations
Station Observations
SEVANL01
SevillaES 41004

SevillaES 41004

Lat: 37.383633, Lon: -5.985787

Elevation: 19.685

Station Type: Davis Vantage Pro2

www.tiempoensevilla.es

High Low Average
Temperature 75.7°F24.3°C 60.8°F16.0°C 67.6°F19.8°C
Dew Point 57.1°F13.9°C 50.1°F10.1°C 53.3°F11.8°C
Winds 10.1 mph 16.3 kmh Calm Calm 5.0 mph WSW8.0 kmh WSW
Wind Gusts 21.0 mph33.8 kmh 2.0 mph3.2 kmh 11.0 mph17.7 kmh
Humidity 79% 45% 61%
Pressure 30.05 in1017.6 mb 29.95 in1014.2 mb -
Precipitation 0.00 in0.0 mm - -
Hour Temp Dew Point Humidity Winds Wind Gusts Pressure Precip Precip Rate Daily Precip Total
12:00 AM 64.5°F18.1°C 57.1°F13.9°C 77% 3.0 mph SW4.8 kmh SW 6.0 mph9.7 kmh 30.00 in1015.9 mb 0.00 in0.0 mm 0.00 in0.0 mm 0.00 in0.0 mm
12:20 AM 64.0°F17.8°C 57.0°F13.9°C 78% 2.8 mph SW4.5 kmh SW 6.0 mph9.7 kmh 30.01 in1016.3 mb 0.00 in0.0 mm 0.00 in0.0 mm 0.00 in0.0 mm
12:40 AM 63.7°F17.6°C 57.1°F13.9°C 79% 3.0 mph SSW4.8 kmh SSW 6.0 mph9.7 kmh 30.00 in1015.9 mb 0.00 in0.0 mm 0.00 in0.0 mm 0.00 in0.0 mm
01:00 AM 63.6°F17.6°C 57.0°F13.9°C 79% 1.8 mph SW2.9 kmh SW 4.0 mph6.4 kmh 30.00 in1015.9 mb 0.00 in0.0 mm 0.00 in0.0 mm 0.00 in0.0 mm
01:20 AM 63.6°F17.6°C 57.0°F13.9°C 79% 2.0 mph WSW3.2 kmh WSW 4.0 mph6.4 kmh 30.00 in1015.9 mb 0.00 in0.0 mm 0.00 in0.0 mm 0.00 in0.0 mm
01:40 AM 63.5°F17.5°C 56.5°F13.6°C 78% 0.9 mph WSW1.4 kmh WSW 2.0 mph3.2 kmh 30.00 in1015.9 mb 0.00 in0.0 mm 0.00 in0.0 mm 0.00 in0.0 mm
02:00 AM 63.6°F17.6°C 56.6°F13.7°C 78% 1.0 mph WSW1.6 kmh WSW 2.0 mph3.2 kmh 29.99 in1015.6 mb 0.00 in0.0 mm 0.00 in0.0 mm 0.00 in0.0 mm
02:20 AM 63.7°F17.6°C 56.7°F13.7°C 78% Calm Calm 2.0 mph3.2 kmh 29.99 in1015.6 mb 0.00 in0.0 mm 0.00 in0.0 mm 0.00 in0.0 mm
02:40 AM 63.9°F17.7°C 55.1°F12.8°C 73% 3.2 mph N5.1 kmh N 5.0 mph8.0 kmh 29.99 in1015.6 mb 0.00 in0.0 mm 0.00 in0.0 mm 0.00 in0.0 mm
03:00 AM 63.9°F17.7°C 54.3°F12.4°C 71% 1.7 mph N2.7 kmh N 7.0 mph11.3 kmh 29.99 in1015.6 mb 0.00 in0.0 mm 0.00 in0.0 mm 0.00 in0.0 mm
03:20 AM 63.5°F17.5°C 53.1°F11.7°C 69% 4.8 mph N7.7 kmh N 10.0 mph16.1 kmh 29.99 in1015.6 mb 0.00 in0.0 mm 0.00 in0.0 mm 0.00 in0.0 mm
03:40 AM 63.1°F17.3°C 52.8°F11.6°C 69% 5.0 mph N8.0 kmh N 10.0 mph16.1 kmh 30.00 in1015.9 mb 0.00 in0.0 mm 0.00 in0.0 mm 0.00 in0.0 mm
04:00 AM 63.1°F17.3°C 52.4°F11.3°C 68% 4.2 mph NNE6.8 kmh NNE 8.0 mph12.9 kmh 29.99 in1015.6 mb 0.00 in0.0 mm 0.00 in0.0 mm 0.00 in0.0 mm
04:20 AM 63.0°F17.2°C 51.9°F11.1°C 67% 4.2 mph NNE6.8 kmh NNE 8.0 mph12.9 kmh 30.00 in1015.9 mb 0.00 in0.0 mm 0.00 in0.0 mm 0.00 in0.0 mm
04:40 AM 62.7°F17.1°C 51.6°F10.9°C 67% 4.5 mph NNE7.2 kmh NNE 8.0 mph12.9 kmh 30.00 in1015.9 mb 0.00 in0.0 mm 0.00 in0.0 mm 0.00 in0.0 mm
05:00 AM 62.7°F17.1°C 51.6°F10.9°C 67% 3.7 mph NNW6.0 kmh NNW 10.0 mph16.1 kmh 30.00 in1015.9 mb 0.00 in0.0 mm 0.00 in0.0 mm 0.00 in0.0 mm
05:20 AM 62.3°F16.8°C 51.6°F10.9°C 68% 4.3 mph N6.9 kmh N 9.0 mph14.5 kmh 30.00 in1015.9 mb 0.00 in0.0 mm 0.00 in0.0 mm 0.00 in0.0 mm
05:40 AM 61.6°F16.4°C 50.9°F10.5°C 68% 5.4 mph N8.7 kmh N 13.0 mph20.9 kmh 30.01 in1016.3 mb 0.00 in0.0 mm 0.00 in0.0 mm 0.00 in0.0 mm
06:00 AM 61.1°F16.2°C 50.8°F10.4°C 69% 6.0 mph N9.7 kmh N 12.0 mph19.3 kmh 30.01 in1016.3 mb 0.00 in0.0 mm 0.00 in0.0 mm 0.00 in0.0 mm
06:20 AM 60.8°F16.0°C 51.0°F10.6°C 70% 4.5 mph N7.2 kmh N 9.0 mph14.5 kmh 30.01 in1016.3 mb 0.00 in0.0 mm 0.00 in0.0 mm 0.00 in0.0 mm
06:40 AM 61.4°F16.3°C 50.7°F10.4°C 68% 5.4 mph N8.7 kmh N 11.0 mph17.7 kmh 30.02 in1016.6 mb 0.00 in0.0 mm 0.00 in0.0 mm 0.00 in0.0 mm
07:00 AM 61.5°F16.4°C 50.4°F10.2°C 67% 5.5 mph N8.9 kmh N 10.0 mph16.1 kmh 30.02 in1016.6 mb 0.00 in0.0 mm 0.00 in0.0 mm 0.00 in0.0 mm
07:20 AM 61.6°F16.4°C 50.5°F10.3°C 67% 5.6 mph NNW9.0 kmh NNW 11.0 mph17.7 kmh 30.03 in1016.9 mb 0.00 in0.0 mm 0.00 in0.0 mm 0.00 in0.0 mm
07:40 AM 61.6°F16.4°C 50.1°F10.1°C 66% 6.6 mph NNW10.6 kmh NNW 14.0 mph22.5 kmh 30.03 in1016.9 mb 0.00 in0.0 mm 0.00 in0.0 mm 0.00 in0.0 mm
08:00 AM 62.0°F16.7°C 50.5°F10.3°C 66% 6.6 mph NNW10.6 kmh NNW 14.0 mph22.5 kmh 30.04 in1017.3 mb 0.00 in0.0 mm 0.00 in0.0 mm 0.00 in0.0 mm
08:20 AM 62.2°F16.8°C 50.3°F10.2°C 65% 7.0 mph NNW11.3 kmh NNW 11.0 mph17.7 kmh 30.04 in1017.3 mb 0.00 in0.0 mm 0.00 in0.0 mm 0.00 in0.0 mm
08:40 AM 62.7°F17.1°C 50.8°F10.4°C 65% 6.3 mph NNW10.1 kmh NNW 11.0 mph17.7 kmh 30.04 in1017.3 mb 0.00 in0.0 mm 0.00 in0.0 mm 0.00 in0.0 mm
09:00 AM 63.1°F17.3°C 50.7°F10.4°C 64% 4.8 mph NNW7.7 kmh NNW 10.0 mph16.1 kmh 30.05 in1017.6 mb 0.00 in0.0 mm 0.00 in0.0 mm 0.00 in0.0 mm
09:20 AM 64.3°F17.9°C 51.4°F10.8°C 63% 4.0 mph N6.4 kmh N 11.0 mph17.7 kmh 30.05 in1017.6 mb 0.00 in0.0 mm 0.00 in0.0 mm 0.00 in0.0 mm
09:40 AM 64.3°F17.9°C 51.4°F10.8°C 63% 4.0 mph NW6.4 kmh NW 9.0 mph14.5 kmh 30.05 in1017.6 mb 0.00 in0.0 mm 0.00 in0.0 mm 0.00 in0.0 mm
10:00 AM 65.1°F18.4°C 51.8°F11.0°C 62% 4.7 mph NNW7.6 kmh NNW 11.0 mph17.7 kmh 30.04 in1017.3 mb 0.00 in0.0 mm 0.00 in0.0 mm 0.00 in0.0 mm
10:20 AM 65.8°F18.8°C 52.0°F11.1°C 61% 4.3 mph NNW6.9 kmh NNW 10.0 mph16.1 kmh 30.04 in1017.3 mb 0.00 in0.0 mm 0.00 in0.0 mm 0.00 in0.0 mm
10:40 AM 66.7°F19.3°C 51.5°F10.8°C 58% 4.0 mph NW6.4 kmh NW 11.0 mph17.7 kmh 30.04 in1017.3 mb 0.00 in0.0 mm 0.00 in0.0 mm 0.00 in0.0 mm
11:00 AM 67.3°F19.6°C 51.5°F10.8°C 57% 4.7 mph NNW7.6 kmh NNW 11.0 mph17.7 kmh 30.04 in1017.3 mb 0.00 in0.0 mm 0.00 in0.0 mm 0.00 in0.0 mm
11:20 AM 68.3°F20.2°C 52.0°F11.1°C 56% 3.7 mph NNW6.0 kmh NNW 12.0 mph19.3 kmh 30.03 in1016.9 mb 0.00 in0.0 mm 0.00 in0.0 mm 0.00 in0.0 mm
11:40 AM 68.7°F20.4°C 52.4°F11.3°C 56% 4.5 mph N7.2 kmh N 11.0 mph17.7 kmh 30.03 in1016.9 mb 0.00 in0.0 mm 0.00 in0.0 mm 0.00 in0.0 mm
12:00 PM 69.5°F20.8°C 52.6°F11.4°C 55% 4.5 mph NW7.2 kmh NW 11.0 mph17.7 kmh 30.03 in1016.9 mb 0.00 in0.0 mm 0.00 in0.0 mm 0.00 in0.0 mm
12:20 PM 70.0°F21.1°C 53.1°F11.7°C 55% 5.0 mph NW8.0 kmh NW 12.0 mph19.3 kmh 30.03 in1016.9 mb 0.00 in0.0 mm 0.00 in0.0 mm 0.00 in0.0 mm
12:40 PM 70.7°F21.5°C 52.7°F11.5°C 53% 3.7 mph NW6.0 kmh NW 10.0 mph16.1 kmh 30.02 in1016.6 mb 0.00 in0.0 mm 0.00 in0.0 mm 0.00 in0.0 mm
01:00 PM 71.4°F21.9°C 52.3°F11.3°C 51% 3.6 mph NW5.8 kmh NW 10.0 mph16.1 kmh 30.02 in1016.6 mb 0.00 in0.0 mm 0.00 in0.0 mm 0.00 in0.0 mm
01:20 PM 71.5°F21.9°C 51.9°F11.1°C 50% 5.2 mph W8.4 kmh W 14.0 mph22.5 kmh 30.01 in1016.3 mb 0.00 in0.0 mm 0.00 in0.0 mm 0.00 in0.0 mm
01:40 PM 72.0°F22.2°C 52.3°F11.3°C 50% 4.6 mph W7.4 kmh W 10.0 mph16.1 kmh 30.01 in1016.3 mb 0.00 in0.0 mm 0.00 in0.0 mm 0.00 in0.0 mm
02:00 PM 72.9°F22.7°C 53.2°F11.8°C 50% 4.3 mph WSW6.9 kmh WSW 13.0 mph20.9 kmh 30.00 in1015.9 mb 0.00 in0.0 mm 0.00 in0.0 mm 0.00 in0.0 mm
02:20 PM 73.6°F23.1°C 53.3°F11.8°C 49% 4.5 mph WNW7.2 kmh WNW 10.0 mph16.1 kmh 29.99 in1015.6 mb 0.00 in0.0 mm 0.00 in0.0 mm 0.00 in0.0 mm
02:40 PM 73.9°F23.3°C 53.5°F11.9°C 49% 3.7 mph W6.0 kmh W 11.0 mph17.7 kmh 29.98 in1015.2 mb 0.00 in0.0 mm 0.00 in0.0 mm 0.00 in0.0 mm
03:00 PM 75.2°F24.0°C 53.6°F12.0°C 47% 3.1 mph NW5.0 kmh NW 11.0 mph17.7 kmh 29.98 in1015.2 mb 0.00 in0.0 mm 0.00 in0.0 mm 0.00 in0.0 mm
03:20 PM 74.7°F23.7°C 53.1°F11.7°C 47% 4.1 mph W6.6 kmh W 13.0 mph20.9 kmh 29.98 in1015.2 mb 0.00 in0.0 mm 0.00 in0.0 mm 0.00 in0.0 mm
03:40 PM 74.9°F23.8°C 52.7°F11.5°C 46% 5.5 mph W8.9 kmh W 16.0 mph25.7 kmh 29.97 in1014.9 mb 0.00 in0.0 mm 0.00 in0.0 mm 0.00 in0.0 mm
04:00 PM 75.7°F24.3°C 52.8°F11.6°C 45% 5.6 mph WNW9.0 kmh WNW 13.0 mph20.9 kmh 29.97 in1014.9 mb 0.00 in0.0 mm 0.00 in0.0 mm 0.00 in0.0 mm
04:20 PM 74.7°F23.7°C 52.5°F11.4°C 46% 5.8 mph WNW9.3 kmh WNW 14.0 mph22.5 kmh 29.96 in1014.6 mb 0.00 in0.0 mm 0.00 in0.0 mm 0.00 in0.0 mm
04:40 PM 74.4°F23.6°C 52.3°F11.3°C 46% 5.2 mph WNW8.4 kmh WNW 14.0 mph22.5 kmh 29.97 in1014.9 mb 0.00 in0.0 mm 0.00 in0.0 mm 0.00 in0.0 mm
05:00 PM 74.7°F23.7°C 52.5°F11.4°C 46% 6.1 mph NW9.8 kmh NW 15.0 mph24.1 kmh 29.97 in1014.9 mb 0.00 in0.0 mm 0.00 in0.0 mm 0.00 in0.0 mm
05:20 PM 75.3°F24.1°C 52.5°F11.4°C 45% 5.8 mph NW9.3 kmh NW 12.0 mph19.3 kmh 29.96 in1014.6 mb 0.00 in0.0 mm 0.00 in0.0 mm 0.00 in0.0 mm
05:40 PM 74.9°F23.8°C 52.7°F11.5°C 46% 4.7 mph WNW7.6 kmh WNW 11.0 mph17.7 kmh 29.96 in1014.6 mb 0.00 in0.0 mm 0.00 in0.0 mm 0.00 in0.0 mm
06:00 PM 74.0°F23.3°C 52.5°F11.4°C 47% 6.3 mph W10.1 kmh W 15.0 mph24.1 kmh 29.95 in1014.2 mb 0.00 in0.0 mm 0.00 in0.0 mm 0.00 in0.0 mm
06:20 PM 74.6°F23.7°C 53.0°F11.7°C 47% 5.1 mph W8.2 kmh W 17.0 mph27.4 kmh 29.95 in1014.2 mb 0.00 in0.0 mm 0.00 in0.0 mm 0.00 in0.0 mm
06:30 PM 74.9°F23.8°C 53.3°F11.8°C 47% 5.1 mph WNW8.2 kmh WNW 17.0 mph27.4 kmh 29.95 in1014.2 mb 0.00 in0.0 mm 0.00 in0.0 mm 0.00 in0.0 mm
06:40 PM 74.3°F23.5°C 52.8°F11.6°C 47% 4.9 mph WNW7.9 kmh WNW 17.0 mph27.4 kmh 29.95 in1014.2 mb 0.00 in0.0 mm 0.00 in0.0 mm 0.00 in0.0 mm
07:00 PM 74.0°F23.3°C 55.3°F12.9°C 52% 4.1 mph WSW6.6 kmh WSW 20.0 mph32.2 kmh 29.96 in1014.6 mb 0.00 in0.0 mm 0.00 in0.0 mm 0.00 in0.0 mm
07:20 PM 69.8°F21.0°C 55.3°F12.9°C 60% 10.1 mph WSW16.3 kmh WSW 21.0 mph33.8 kmh 29.97 in1014.9 mb 0.00 in0.0 mm 0.00 in0.0 mm 0.00 in0.0 mm
07:40 PM 69.6°F20.9°C 55.1°F12.8°C 60% 8.9 mph WSW14.3 kmh WSW 14.0 mph22.5 kmh 29.97 in1014.9 mb 0.00 in0.0 mm 0.00 in0.0 mm 0.00 in0.0 mm
08:00 PM 68.8°F20.4°C 54.8°F12.7°C 61% 7.5 mph WSW12.1 kmh WSW 17.0 mph27.4 kmh 29.98 in1015.2 mb 0.00 in0.0 mm 0.00 in0.0 mm 0.00 in0.0 mm
08:20 PM 68.2°F20.1°C 54.7°F12.6°C 62% 7.2 mph WSW11.6 kmh WSW 17.0 mph27.4 kmh 29.98 in1015.2 mb 0.00 in0.0 mm 0.00 in0.0 mm 0.00 in0.0 mm
08:40 PM 67.9°F19.9°C 54.8°F12.7°C 63% 6.8 mph WSW10.9 kmh WSW 14.0 mph22.5 kmh 29.98 in1015.2 mb 0.00 in0.0 mm 0.00 in0.0 mm 0.00 in0.0 mm
09:00 PM 67.7°F19.8°C 55.5°F13.1°C 65% 5.7 mph WSW9.2 kmh WSW 12.0 mph19.3 kmh 29.98 in1015.2 mb 0.00 in0.0 mm 0.00 in0.0 mm 0.00 in0.0 mm
09:20 PM 67.5°F19.7°C 55.3°F12.9°C 65% 4.1 mph SW6.6 kmh SW 9.0 mph14.5 kmh 29.99 in1015.6 mb 0.00 in0.0 mm 0.00 in0.0 mm 0.00 in0.0 mm
09:40 PM 67.3°F19.6°C 55.5°F13.1°C 66% 4.5 mph WSW7.2 kmh WSW 11.0 mph17.7 kmh 29.99 in1015.6 mb 0.00 in0.0 mm 0.00 in0.0 mm 0.00 in0.0 mm
10:00 PM 67.5°F19.7°C 55.7°F13.2°C 66% 4.1 mph WSW6.6 kmh WSW 11.0 mph17.7 kmh 30.00 in1015.9 mb 0.00 in0.0 mm 0.00 in0.0 mm 0.00 in0.0 mm
10:20 PM 68.2°F20.1°C 55.1°F12.8°C 63% 3.5 mph WSW5.6 kmh WSW 10.0 mph16.1 kmh 30.00 in1015.9 mb 0.00 in0.0 mm 0.00 in0.0 mm 0.00 in0.0 mm
10:40 PM 68.7°F20.4°C 55.2°F12.9°C 62% 4.0 mph W6.4 kmh W 10.0 mph16.1 kmh 30.00 in1015.9 mb 0.00 in0.0 mm 0.00 in0.0 mm 0.00 in0.0 mm
11:00 PM 68.4°F20.2°C 55.3°F12.9°C 63% 4.7 mph W7.6 kmh W 9.0 mph14.5 kmh 30.00 in1015.9 mb 0.00 in0.0 mm 0.00 in0.0 mm 0.00 in0.0 mm
11:20 PM 68.6°F20.3°C 54.6°F12.6°C 61% 5.0 mph WNW8.0 kmh WNW 14.0 mph22.5 kmh 30.00 in1015.9 mb 0.00 in0.0 mm 0.00 in0.0 mm 0.00 in0.0 mm
11:40 PM 68.4°F20.2°C 54.4°F12.4°C 61% 3.0 mph NW4.8 kmh NW 10.0 mph16.1 kmh 30.00 in1015.9 mb 0.00 in0.0 mm 0.00 in0.0 mm 0.00 in0.0 mm